Welcome to Northern Hawkes Bay. New Zealand.
PWS Header
      nz Flag



Hit Counter


W3C Valid W3C Valid logo


    Wairoa

Select any of the Stations below to visit their websites.










Historic Data from Weather Underground
Select the location of interest below. Wairoa is the default. Please have patience, this Data is slow to load in.
Northern Hawkes Bay Historical Data
Daily Summary for December 9, 2018 Units:  Metric    English   Both
« Previous Day
Next Day »
Daily Weekly Monthly Yearly Custom
  High: Low: Average:
Temperature: 27.1 °C 11.0 °C 18.4 °C
Dew Point: 17.5 °C 10.6 °C 14.1 °C
Humidity: 98% 43% 79%
Wind Speed: 17.2km/h 0.0km/h 4.5km/h
Wind Gust: 21.9km/h - -
Wind- - West
Pressure: 1018.0 hPa 1011.7 hPa -
Precipitation: 0.0 mm    
Historical Graphs
 
 
Tabular Data for December 9, 2018
Time Temperature Dew Point Pressure Wind Wind Speed Wind Gust Humidity Rainfall Rate (Hourly) solar
00:04 12.7 °C 12.2 °C 1017.9 hPa Calm     97% 0.0 mm 0.00 W/m2
00:09 12.6 °C 12.2 °C 1018.0 hPa Calm     97% 0.0 mm 0.00 W/m2
00:14 12.6 °C 12.2 °C 1017.9 hPa Calm     97% 0.0 mm 0.00 W/m2
00:19 12.5 °C 12.1 °C 1017.7 hPa NW 1.1 km/h 5.0 km/h 97% 0.0 mm 0.00 W/m2
00:24 12.5 °C 12.1 °C 1017.5 hPa NNW 2.6 km/h 5.0 km/h 97% 0.0 mm 0.00 W/m2
00:29 12.4 °C 11.9 °C 1017.6 hPa NNW 1.1 km/h 5.0 km/h 97% 0.0 mm 0.00 W/m2
00:34 12.4 °C 11.9 °C 1017.4 hPa Calm   5.0 km/h 97% 0.0 mm 0.00 W/m2
00:39 12.4 °C 11.9 °C 1017.4 hPa NNW 5.0 km/h 6.1 km/h 97% 0.0 mm 0.00 W/m2
00:44 12.4 °C 11.9 °C 1017.2 hPa NNW 3.5 km/h 8.7 km/h 97% 0.0 mm 0.00 W/m2
00:49 12.4 °C 11.9 °C 1017.1 hPa NNW 2.6 km/h 8.7 km/h 97% 0.0 mm 0.00 W/m2
00:54 12.4 °C 11.9 °C 1017.0 hPa NNW 3.5 km/h 6.1 km/h 97% 0.0 mm 0.00 W/m2
00:59 12.3 °C 11.8 °C 1017.0 hPa NNW 3.5 km/h 5.0 km/h 97% 0.0 mm 0.00 W/m2
01:04 12.3 °C 11.8 °C 1016.7 hPa NNW 3.5 km/h 7.2 km/h 97% 0.0 mm 0.00 W/m2
01:09 12.3 °C 11.7 °C 1016.7 hPa NNW 2.6 km/h 7.2 km/h 96% 0.0 mm 0.00 W/m2
01:14 12.3 °C 11.7 °C 1016.7 hPa NNW 2.6 km/h 7.2 km/h 96% 0.0 mm 0.00 W/m2
01:19 12.3 °C 11.5 °C 1016.6 hPa NNW 2.6 km/h 8.7 km/h 95% 0.0 mm 0.00 W/m2
01:24 12.2 °C 11.4 °C 1016.7 hPa North 5.0 km/h 8.7 km/h 95% 0.0 mm 0.00 W/m2
01:29 12.3 °C 11.4 °C 1016.6 hPa NNW 6.1 km/h 8.7 km/h 94% 0.0 mm 0.00 W/m2
01:34 12.3 °C 11.2 °C 1016.3 hPa NNW 6.1 km/h 8.7 km/h 93% 0.0 mm 0.00 W/m2
01:39 12.4 °C 11.2 °C 1016.3 hPa NNW 6.1 km/h 11.1 km/h 92% 0.0 mm 0.00 W/m2
01:44 12.4 °C 11.2 °C 1016.2 hPa NNW 7.2 km/h 11.1 km/h 92% 0.0 mm 0.00 W/m2
01:49 12.4 °C 11.0 °C 1016.1 hPa NNW 5.0 km/h 11.1 km/h 91% 0.0 mm 0.00 W/m2
01:54 12.3 °C 10.9 °C 1016.0 hPa NNW 5.0 km/h 8.7 km/h 91% 0.0 mm 0.00 W/m2
01:59 12.2 °C 10.8 °C 1016.1 hPa NNW 2.6 km/h 8.7 km/h 91% 0.0 mm 0.00 W/m2
02:04 12.1 °C 10.7 °C 1016.1 hPa NNW 2.6 km/h 6.1 km/h 91% 0.0 mm 0.00 W/m2
02:09 12.0 °C 10.7 °C 1016.2 hPa North 1.1 km/h 5.0 km/h 92% 0.0 mm 0.00 W/m2
02:14 12.0 °C 10.7 °C 1016.1 hPa North 1.1 km/h 5.0 km/h 92% 0.0 mm 0.00 W/m2
02:19 11.9 °C 10.8 °C 1016.0 hPa Calm   3.5 km/h 93% 0.0 mm 0.00 W/m2
02:24 12.0 °C 10.7 °C 1016.1 hPa Calm   1.1 km/h 92% 0.0 mm 0.00 W/m2
02:29 11.9 °C 10.8 °C 1016.1 hPa Calm     93% 0.0 mm 0.00 W/m2
02:34 11.8 °C 10.7 °C 1016.1 hPa Calm     93% 0.0 mm 0.00 W/m2
02:39 11.7 °C 10.6 °C 1016.1 hPa Calm     93% 0.0 mm 0.00 W/m2
02:44 11.7 °C 10.8 °C 1015.9 hPa NNW 2.6 km/h 5.0 km/h 94% 0.0 mm 0.00 W/m2
02:49 11.5 °C 10.6 °C 1016.1 hPa NNW 2.6 km/h 6.1 km/h 94% 0.0 mm 0.00 W/m2
02:54 11.5 °C 10.7 °C 1016.0 hPa NNW 5.0 km/h 6.1 km/h 95% 0.0 mm 0.00 W/m2
02:59 11.5 °C 10.7 °C 1016.0 hPa NNW 5.0 km/h 7.2 km/h 95% 0.0 mm 0.00 W/m2
03:04 11.5 °C 10.7 °C 1015.8 hPa NNW 5.0 km/h 7.2 km/h 95% 0.0 mm 0.00 W/m2
03:09 11.5 °C 10.9 °C 1015.9 hPa NNW 5.0 km/h 7.2 km/h 96% 0.0 mm 0.00 W/m2
03:14 11.5 °C 10.9 °C 1015.8 hPa NNW 3.5 km/h 7.2 km/h 96% 0.0 mm 0.00 W/m2
03:19 11.4 °C 10.8 °C 1015.9 hPa NNW 3.5 km/h 6.1 km/h 96% 0.0 mm 0.00 W/m2
03:23 11.4 °C 10.8 °C 1015.9 hPa NNW 3.5 km/h 6.1 km/h 96% 0.0 mm 0.00 W/m2
03:39 11.2 °C 10.7 °C 1015.7 hPa NNW 3.5 km/h 7.2 km/h 97% 0.0 mm 0.00 W/m2
03:44 11.2 °C 10.7 °C 1015.8 hPa NNW 5.0 km/h 7.2 km/h 97% 0.0 mm 0.00 W/m2
03:49 11.2 °C 10.7 °C 1015.9 hPa NNW 3.5 km/h 7.2 km/h 97% 0.0 mm 0.00 W/m2
03:54 11.2 °C 10.7 °C 1015.8 hPa NNW 7.2 km/h 9.7 km/h 97% 0.0 mm 0.00 W/m2
03:59 11.2 °C 10.9 °C 1015.6 hPa NNW 3.5 km/h 9.7 km/h 98% 0.0 mm 0.00 W/m2
04:04 11.2 °C 10.9 °C 1015.6 hPa NNW 8.7 km/h 9.7 km/h 98% 0.0 mm 0.00 W/m2
04:09 11.2 °C 10.9 °C 1015.6 hPa NNW 6.1 km/h 9.7 km/h 98% 0.0 mm 0.00 W/m2
04:14 11.2 °C 10.9 °C 1015.7 hPa NNW 2.6 km/h 9.7 km/h 98% 0.0 mm 0.00 W/m2
04:19 11.1 °C 10.8 °C 1015.8 hPa NNW 3.5 km/h 8.7 km/h 98% 0.0 mm 0.00 W/m2
04:24 11.1 °C 10.8 °C 1016.1 hPa NNW 2.6 km/h 8.7 km/h 98% 0.0 mm 0.00 W/m2
04:29 11.1 °C 10.8 °C 1016.1 hPa WNW 3.5 km/h 6.1 km/h 98% 0.0 mm 0.00 W/m2
04:34 11.0 °C 10.7 °C 1015.9 hPa Calm   6.1 km/h 98% 0.0 mm 0.00 W/m2
04:39 11.0 °C 10.7 °C 1016.0 hPa Calm   5.0 km/h 98% 0.0 mm 0.00 W/m2
04:44 11.0 °C 10.7 °C 1016.2 hPa Calm     98% 0.0 mm 0.00 W/m2
04:49 11.1 °C 10.8 °C 1016.0 hPa NE 3.5 km/h 6.1 km/h 98% 0.0 mm 0.00 W/m2
04:54 11.1 °C 10.8 °C 1016.3 hPa Calm   6.1 km/h 98% 0.0 mm 0.00 W/m2
04:59 11.0 °C 10.7 °C 1016.2 hPa Calm   5.0 km/h 98% 0.0 mm 0.00 W/m2
05:04 11.1 °C 10.8 °C 1016.1 hPa Calm   3.5 km/h 98% 0.0 mm 0.00 W/m2
05:09 11.1 °C 10.8 °C 1016.3 hPa Calm     98% 0.0 mm 0.00 W/m2
05:14 11.0 °C 10.7 °C 1016.7 hPa Calm     98% 0.0 mm 0.00 W/m2
05:19 11.0 °C 10.7 °C 1016.5 hPa Calm     98% 0.0 mm 0.00 W/m2
05:24 11.0 °C 10.7 °C 1016.4 hPa NNW 3.5 km/h 7.2 km/h 98% 0.0 mm 0.00 W/m2
05:29 11.0 °C 10.7 °C 1016.5 hPa NNW 3.5 km/h 7.2 km/h 98% 0.0 mm 0.00 W/m2
05:34 11.0 °C 10.7 °C 1016.6 hPa North 3.5 km/h 7.2 km/h 98% 0.0 mm 0.00 W/m2
05:39 11.0 °C 10.7 °C 1016.4 hPa NNE 3.5 km/h 6.1 km/h 98% 0.0 mm 0.00 W/m2
05:44 11.1 °C 10.8 °C 1016.5 hPa NNE 2.6 km/h 6.1 km/h 98% 0.0 mm 1.00 W/m2
05:49 11.2 °C 10.9 °C 1016.7 hPa Calm   6.1 km/h 98% 0.0 mm 4.00 W/m2
05:54 11.2 °C 10.9 °C 1016.6 hPa NNW 2.6 km/h 7.2 km/h 98% 0.0 mm 6.00 W/m2
05:59 11.3 °C 11.0 °C 1016.5 hPa NNW 5.0 km/h 8.7 km/h 98% 0.0 mm 8.00 W/m2
06:04 11.3 °C 11.0 °C 1016.7 hPa NNW 2.6 km/h 8.7 km/h 98% 0.0 mm 16.00 W/m2
06:09 11.4 °C 11.1 °C 1016.7 hPa NNW 3.5 km/h 7.2 km/h 98% 0.0 mm 27.00 W/m2
06:14 11.4 °C 11.1 °C 1016.8 hPa Calm   6.1 km/h 98% 0.0 mm 30.00 W/m2
06:19 11.6 °C 11.3 °C 1016.6 hPa NW 3.5 km/h 7.2 km/h 98% 0.0 mm 29.00 W/m2
06:24 11.7 °C 11.4 °C 1016.6 hPa NNW 5.0 km/h 8.7 km/h 98% 0.0 mm 36.00 W/m2
06:29 11.8 °C 11.5 °C 1016.7 hPa NNW 2.6 km/h 8.7 km/h 98% 0.0 mm 38.00 W/m2
06:34 12.0 °C 11.6 °C 1016.8 hPa NNW 1.1 km/h 8.7 km/h 97% 0.0 mm 61.00 W/m2
06:39 12.3 °C 11.8 °C 1016.9 hPa NW 2.6 km/h 7.2 km/h 97% 0.0 mm 50.00 W/m2
06:44 12.5 °C 12.1 °C 1016.8 hPa NW 3.5 km/h 7.2 km/h 97% 0.0 mm 46.00 W/m2
06:49 12.5 °C 12.1 °C 1016.7 hPa NW 3.5 km/h 8.7 km/h 97% 0.0 mm 57.00 W/m2
06:54 12.7 °C 12.1 °C 1016.8 hPa NW 5.0 km/h 8.7 km/h 96% 0.0 mm 63.00 W/m2
06:59 12.7 °C 12.1 °C 1016.7 hPa NW 5.0 km/h 8.7 km/h 96% 0.0 mm 67.00 W/m2
07:04 12.8 °C 12.0 °C 1016.9 hPa NW 6.1 km/h 8.7 km/h 95% 0.0 mm 65.00 W/m2
07:09 12.7 °C 11.9 °C 1016.6 hPa NW 6.1 km/h 11.1 km/h 95% 0.0 mm 74.00 W/m2
07:14 12.7 °C 12.1 °C 1016.7 hPa NW 5.0 km/h 11.1 km/h 96% 0.0 mm 88.00 W/m2
07:19 12.8 °C 12.2 °C 1016.6 hPa NW 6.1 km/h 11.1 km/h 96% 0.0 mm 101.00 W/m2
07:24 13.0 °C 12.4 °C 1016.9 hPa NW 7.2 km/h 9.7 km/h 96% 0.0 mm 102.00 W/m2
07:29 13.2 °C 12.6 °C 1017.0 hPa NW 3.5 km/h 9.7 km/h 96% 0.0 mm 115.00 W/m2
07:34 13.4 °C 12.8 °C 1016.9 hPa NW 6.1 km/h 8.7 km/h 96% 0.0 mm 104.00 W/m2
07:39 13.6 °C 12.8 °C 1017.0 hPa NW 6.1 km/h 8.7 km/h 95% 0.0 mm 123.00 W/m2
07:44 13.6 °C 12.8 °C 1017.0 hPa NW 5.0 km/h 11.1 km/h 95% 0.0 mm 146.00 W/m2
07:49 13.8 °C 13.0 °C 1016.9 hPa NW 5.0 km/h 11.1 km/h 95% 0.0 mm 190.00 W/m2
07:54 14.1 °C 13.0 °C 1017.0 hPa NW 6.1 km/h 9.7 km/h 93% 0.0 mm 160.00 W/m2
07:59 14.4 °C 13.1 °C 1016.9 hPa NW 3.5 km/h 9.7 km/h 92% 0.0 mm 162.00 W/m2
08:04 14.8 °C 13.5 °C 1017.0 hPa NNW 5.0 km/h 9.7 km/h 92% 0.0 mm 170.00 W/m2
08:09 15.3 °C 13.7 °C 1016.8 hPa NNW 5.0 km/h 7.2 km/h 90% 0.0 mm 263.00 W/m2
08:14 15.4 °C 13.3 °C 1017.2 hPa NNW 7.2 km/h 9.7 km/h 87% 0.0 mm 159.00 W/m2
08:19 15.6 °C 13.3 °C 1017.1 hPa NNW 7.2 km/h 11.1 km/h 86% 0.0 mm 301.00 W/m2
08:22 15.8 °C 13.3 °C 1017.1 hPa North 5.0 km/h 11.1 km/h 85% 0.0 mm 354.00 W/m2
08:39 18.2 °C 13.9 °C 1017.2 hPa North 5.0 km/h 8.7 km/h 76% 0.0 mm 264.00 W/m2
08:44 18.3 °C 14.0 °C 1017.3 hPa NNW 5.0 km/h 11.1 km/h 76% 0.0 mm 252.00 W/m2
08:49 17.9 °C 13.6 °C 1017.3 hPa NW 5.0 km/h 11.1 km/h 76% 0.0 mm 315.00 W/m2
08:54 17.8 °C 13.7 °C 1017.3 hPa NW 6.1 km/h 11.1 km/h 77% 0.0 mm 273.00 W/m2
08:59 17.9 °C 14.4 °C 1017.3 hPa NW 5.0 km/h 11.1 km/h 80% 0.0 mm 265.00 W/m2
09:04 18.3 °C 14.6 °C 1017.2 hPa North 3.5 km/h 9.7 km/h 79% 0.0 mm 228.00 W/m2
09:09 18.7 °C 14.8 °C 1017.2 hPa NNE 6.1 km/h 8.7 km/h 78% 0.0 mm 223.00 W/m2
09:14 18.7 °C 14.8 °C 1017.2 hPa NNE 5.0 km/h 8.7 km/h 78% 0.0 mm 308.00 W/m2
09:19 19.1 °C 14.8 °C 1017.1 hPa NNW 6.1 km/h 11.1 km/h 76% 0.0 mm 311.00 W/m2
09:24 19.2 °C 14.9 °C 1017.1 hPa NNW 6.1 km/h 11.1 km/h 76% 0.0 mm 644.00 W/m2
09:29 19.6 °C 15.3 °C 1017.2 hPa NNW 3.5 km/h 11.1 km/h 76% 0.0 mm 563.00 W/m2
09:34 20.3 °C 15.5 °C 1017.1 hPa North 5.0 km/h 11.1 km/h 74% 0.0 mm 561.00 W/m2
09:39 21.1 °C 15.9 °C 1017.2 hPa North 3.5 km/h 11.1 km/h 72% 0.0 mm 557.00 W/m2
09:44 21.1 °C 15.4 °C 1017.2 hPa NNW 5.0 km/h 9.7 km/h 70% 0.0 mm 581.00 W/m2
09:49 21.5 °C 15.8 °C 1016.9 hPa NNW 2.6 km/h 9.7 km/h 70% 0.0 mm 597.00 W/m2
09:54 21.8 °C 15.4 °C 1017.0 hPa North 6.1 km/h 8.7 km/h 67% 0.0 mm 624.00 W/m2
09:59 21.9 °C 15.1 °C 1016.9 hPa NNW 3.5 km/h 8.7 km/h 65% 0.0 mm 645.00 W/m2
10:04 22.5 °C 14.9 °C 1016.8 hPa NW 3.5 km/h 8.7 km/h 62% 0.0 mm 658.00 W/m2
10:09 23.1 °C 14.7 °C 1016.8 hPa WNW 2.6 km/h 8.7 km/h 59% 0.0 mm 672.00 W/m2
10:14 23.2 °C 14.5 °C 1016.9 hPa WNW 3.5 km/h 8.7 km/h 58% 0.0 mm 684.00 W/m2
10:19 23.4 °C 14.4 °C 1016.9 hPa West 6.1 km/h 8.7 km/h 57% 0.0 mm 697.00 W/m2
10:24 23.4 °C 14.7 °C 1016.9 hPa WNW 2.6 km/h 8.7 km/h 58% 0.0 mm 719.00 W/m2
10:29 23.9 °C 15.9 °C 1016.8 hPa WNW 8.7 km/h 11.1 km/h 61% 0.0 mm 727.00 W/m2
10:34 23.0 °C 16.3 °C 1016.9 hPa WNW 6.1 km/h 11.1 km/h 66% 0.0 mm 729.00 W/m2
10:39 22.1 °C 15.7 °C 1016.9 hPa West 6.1 km/h 11.1 km/h 67% 0.0 mm 732.00 W/m2
10:44 22.0 °C 15.8 °C 1016.7 hPa WSW 7.2 km/h 12.2 km/h 68% 0.0 mm 738.00 W/m2
10:49 21.5 °C 16.1 °C 1016.6 hPa WNW 6.1 km/h 12.2 km/h 71% 0.0 mm 741.00 W/m2
10:54 21.5 °C 16.1 °C 1016.7 hPa West 7.2 km/h 12.2 km/h 71% 0.0 mm 751.00 W/m2
10:59 21.8 °C 16.1 °C 1016.7 hPa SW 8.7 km/h 11.1 km/h 70% 0.0 mm 762.00 W/m2
11:04 21.1 °C 15.7 °C 1016.8 hPa NW 7.2 km/h 12.2 km/h 71% 0.0 mm 763.00 W/m2
11:09 20.9 °C 16.1 °C 1016.7 hPa WNW 7.2 km/h 12.2 km/h 74% 0.0 mm 770.00 W/m2
11:14 21.3 °C 16.3 °C 1016.6 hPa South 6.1 km/h 12.2 km/h 73% 0.0 mm 772.00 W/m2
11:19 21.5 °C 16.4 °C 1016.6 hPa SSW 7.2 km/h 11.1 km/h 73% 0.0 mm 775.00 W/m2
11:24 21.6 °C 16.3 °C 1016.7 hPa WSW 9.7 km/h 12.2 km/h 72% 0.0 mm 787.00 W/m2
11:29 21.9 °C 16.8 °C 1016.5 hPa NW 11.1 km/h 13.4 km/h 73% 0.0 mm 793.00 W/m2
11:34 21.8 °C 16.6 °C 1016.6 hPa SW 6.1 km/h 14.8 km/h 72% 0.0 mm 797.00 W/m2
11:39 21.6 °C 16.1 °C 1016.5 hPa West 7.2 km/h 14.8 km/h 71% 0.0 mm 801.00 W/m2
11:44 21.3 °C 16.1 °C 1016.6 hPa NW 7.2 km/h 13.4 km/h 72% 0.0 mm 802.00 W/m2
11:49 21.5 °C 16.3 °C 1016.4 hPa WNW 3.5 km/h 13.4 km/h 72% 0.0 mm 805.00 W/m2
11:54 21.8 °C 16.6 °C 1016.5 hPa WNW 9.7 km/h 13.4 km/h 72% 0.0 mm 814.00 W/m2
11:59 21.8 °C 15.9 °C 1016.4 hPa West 5.0 km/h 13.4 km/h 69% 0.0 mm 815.00 W/m2
12:04 21.9 °C 16.2 °C 1016.4 hPa WNW 8.7 km/h 14.8 km/h 70% 0.0 mm 818.00 W/m2
12:09 22.2 °C 16.1 °C 1016.3 hPa West 8.7 km/h 14.8 km/h 68% 0.0 mm 824.00 W/m2
12:14 22.6 °C 15.7 °C 1016.3 hPa SW 8.7 km/h 13.4 km/h 65% 0.0 mm 826.00 W/m2
12:19 22.9 °C 15.0 °C 1016.1 hPa South 11.1 km/h 14.8 km/h 61% 0.0 mm 827.00 W/m2
12:24 22.5 °C 15.1 °C 1016.2 hPa SE 9.7 km/h 14.8 km/h 63% 0.0 mm 824.00 W/m2
12:29 22.5 °C 14.4 °C 1016.0 hPa NW 9.7 km/h 14.8 km/h 60% 0.0 mm 824.00 W/m2
12:34 22.8 °C 15.4 °C 1015.8 hPa WNW 7.2 km/h 13.4 km/h 63% 0.0 mm 824.00 W/m2
12:39 22.6 °C 15.4 °C 1015.8 hPa SE 9.7 km/h 13.4 km/h 64% 0.0 mm 820.00 W/m2
12:44 22.1 °C 14.7 °C 1015.8 hPa SE 7.2 km/h 17.2 km/h 63% 0.0 mm 811.00 W/m2
12:49 22.1 °C 15.0 °C 1015.9 hPa SE 17.2 km/h 21.9 km/h 64% 0.0 mm 807.00 W/m2
12:54 21.5 °C 14.9 °C 1015.9 hPa SE 11.1 km/h 21.9 km/h 66% 0.0 mm 799.00 W/m2
12:59 21.0 °C 14.4 °C 1015.8 hPa SE 11.1 km/h 21.9 km/h 66% 0.0 mm 796.00 W/m2
13:04 21.1 °C 15.4 °C 1015.7 hPa ESE 7.2 km/h 19.5 km/h 70% 0.0 mm 796.00 W/m2
13:09 21.5 °C 15.6 °C 1015.6 hPa SE 6.1 km/h 15.8 km/h 69% 0.0 mm 799.00 W/m2
13:14 22.2 °C 14.8 °C 1015.4 hPa ESE 7.2 km/h 15.8 km/h 63% 0.0 mm 800.00 W/m2
13:19 22.2 °C 14.3 °C 1015.6 hPa ESE 7.2 km/h 14.8 km/h 61% 0.0 mm 796.00 W/m2
13:24 22.5 °C 14.4 °C 1015.4 hPa ESE 11.1 km/h 17.2 km/h 60% 0.0 mm 793.00 W/m2
13:29 22.6 °C 13.7 °C 1015.4 hPa ESE 6.1 km/h 17.2 km/h 57% 0.0 mm 789.00 W/m2
13:34 22.7 °C 13.5 °C 1015.2 hPa SE 6.1 km/h 17.2 km/h 56% 0.0 mm 784.00 W/m2
13:39 22.8 °C 13.3 °C 1015.4 hPa SE 12.2 km/h 14.8 km/h 55% 0.0 mm 779.00 W/m2
13:44 22.8 °C 12.7 °C 1015.2 hPa SE 7.2 km/h 14.8 km/h 53% 0.0 mm 777.00 W/m2
13:49 22.8 °C 13.3 °C 1015.0 hPa SSE 11.1 km/h 14.8 km/h 55% 0.0 mm 774.00 W/m2
13:54 22.6 °C 14.2 °C 1015.2 hPa SSW 7.2 km/h 14.8 km/h 59% 0.0 mm 768.00 W/m2
13:59 22.7 °C 14.1 °C 1015.1 hPa West 9.7 km/h 15.8 km/h 58% 0.0 mm 764.00 W/m2
14:04 22.5 °C 14.4 °C 1014.9 hPa SE 8.7 km/h 15.8 km/h 60% 0.0 mm 753.00 W/m2
14:09 22.5 °C 14.1 °C 1014.8 hPa ESE 9.7 km/h 13.4 km/h 59% 0.0 mm 748.00 W/m2
14:14 22.6 °C 14.7 °C 1014.8 hPa ESE 7.2 km/h 13.4 km/h 61% 0.0 mm 745.00 W/m2
14:19 23.0 °C 14.6 °C 1014.8 hPa WSW 5.0 km/h 14.8 km/h 59% 0.0 mm 742.00 W/m2
14:24 23.5 °C 14.5 °C 1014.8 hPa WSW 8.7 km/h 14.8 km/h 57% 0.0 mm 739.00 W/m2
14:29 23.5 °C 14.5 °C 1014.6 hPa ESE 7.2 km/h 14.8 km/h 57% 0.0 mm 732.00 W/m2
14:34 23.0 °C 15.1 °C 1014.6 hPa NNE 8.7 km/h 14.8 km/h 61% 0.0 mm 718.00 W/m2
14:39 22.5 °C 14.6 °C 1014.6 hPa North 12.2 km/h 15.8 km/h 61% 0.0 mm 710.00 W/m2
14:44 22.5 °C 14.9 °C 1014.7 hPa NNW 12.2 km/h 15.8 km/h 62% 0.0 mm 700.00 W/m2
14:49 22.7 °C 15.1 °C 1014.6 hPa West 8.7 km/h 15.8 km/h 62% 0.0 mm 695.00 W/m2
14:54 22.8 °C 14.9 °C 1014.6 hPa NNW 7.2 km/h 15.8 km/h 61% 0.0 mm 685.00 W/m2
14:59 22.7 °C 14.8 °C 1014.4 hPa West 8.7 km/h 15.8 km/h 61% 0.0 mm 682.00 W/m2
15:04 22.8 °C 14.9 °C 1014.4 hPa West 7.2 km/h 15.8 km/h 61% 0.0 mm 674.00 W/m2
15:09 23.2 °C 14.5 °C 1014.6 hPa WSW 5.0 km/h 12.2 km/h 58% 0.0 mm 665.00 W/m2
15:14 23.4 °C 14.4 °C 1014.4 hPa NW 8.7 km/h 12.2 km/h 57% 0.0 mm 657.00 W/m2
15:19 23.5 °C 14.8 °C 1014.4 hPa WNW 7.2 km/h 12.2 km/h 58% 0.0 mm 648.00 W/m2
15:24 23.4 °C 14.7 °C 1014.3 hPa West 9.7 km/h 14.8 km/h 58% 0.0 mm 637.00 W/m2
15:29 23.5 °C 15.3 °C 1014.4 hPa WSW 7.2 km/h 14.8 km/h 60% 0.0 mm 629.00 W/m2
15:34 23.4 °C 14.7 °C 1014.3 hPa SE 9.7 km/h 14.8 km/h 58% 0.0 mm 618.00 W/m2
15:39 23.1 °C 14.7 °C 1014.2 hPa NE 8.7 km/h 14.8 km/h 59% 0.0 mm 606.00 W/m2
15:44 23.0 °C 14.8 °C 1014.2 hPa North 11.1 km/h 14.8 km/h 60% 0.0 mm 596.00 W/m2
15:49 22.8 °C 14.9 °C 1014.0 hPa NNW 6.1 km/h 14.8 km/h 61% 0.0 mm 586.00 W/m2
15:54 23.3 °C 14.8 °C 1013.8 hPa NW 8.7 km/h 14.8 km/h 59% 0.0 mm 579.00 W/m2
15:59 23.2 °C 14.5 °C 1013.9 hPa North 9.7 km/h 13.4 km/h 58% 0.0 mm 569.00 W/m2
16:04 23.4 °C 14.4 °C 1013.8 hPa SSE 7.2 km/h 14.8 km/h 57% 0.0 mm 557.00 W/m2
16:07 23.6 °C 13.8 °C 1014.0 hPa WSW 7.2 km/h 14.8 km/h 54% 0.0 mm 551.00 W/m2
16:24 24.2 °C 14.9 °C 1013.7 hPa NNW 7.2 km/h 12.2 km/h 56% 0.0 mm 516.00 W/m2
16:29 24.3 °C 15.8 °C 1013.5 hPa North 5.0 km/h 12.2 km/h 59% 0.0 mm 503.00 W/m2
16:34 24.7 °C 16.2 °C 1013.2 hPa East 9.7 km/h 12.2 km/h 59% 0.0 mm 493.00 W/m2
16:39 24.7 °C 15.9 °C 1013.3 hPa SSE 9.7 km/h 13.4 km/h 58% 0.0 mm 481.00 W/m2
16:44 24.7 °C 16.4 °C 1013.2 hPa SW 9.7 km/h 13.4 km/h 60% 0.0 mm 469.00 W/m2
16:49 24.6 °C 15.8 °C 1013.2 hPa NW 6.1 km/h 13.4 km/h 58% 0.0 mm 458.00 W/m2
16:54 25.0 °C 15.3 °C 1013.2 hPa NNW 8.7 km/h 14.8 km/h 55% 0.0 mm 445.00 W/m2
16:59 25.0 °C 15.9 °C 1013.2 hPa West 8.7 km/h 14.8 km/h 57% 0.0 mm 433.00 W/m2
17:04 24.8 °C 15.2 °C 1013.0 hPa WNW 7.2 km/h 14.8 km/h 55% 0.0 mm 420.00 W/m2
17:09 24.4 °C 15.9 °C 1012.9 hPa North 12.2 km/h 17.2 km/h 59% 0.0 mm 408.00 W/m2
17:14 24.8 °C 15.4 °C 1012.8 hPa West 7.2 km/h 17.2 km/h 56% 0.0 mm 398.00 W/m2
17:19 24.9 °C 15.3 °C 1012.8 hPa SW 7.2 km/h 17.2 km/h 55% 0.0 mm 387.00 W/m2
17:24 25.8 °C 15.2 °C 1012.6 hPa SW 3.5 km/h 14.8 km/h 52% 0.0 mm 376.00 W/m2
17:29 26.6 °C 13.4 °C 1012.6 hPa SE 6.1 km/h 9.7 km/h 44% 0.0 mm 372.00 W/m2
17:34 27.1 °C 13.4 °C 1012.6 hPa SE 7.2 km/h 11.1 km/h 43% 0.0 mm 350.00 W/m2
17:39 26.6 °C 13.7 °C 1012.6 hPa SE 2.6 km/h 11.1 km/h 45% 0.0 mm 347.00 W/m2
17:44 26.8 °C 13.9 °C 1012.5 hPa SSE 6.1 km/h 9.7 km/h 45% 0.0 mm 323.00 W/m2
17:49 25.7 °C 14.8 °C 1012.5 hPa WSW 6.1 km/h 12.2 km/h 51% 0.0 mm 130.00 W/m2
17:54 24.8 °C 15.4 °C 1012.4 hPa West 6.1 km/h 12.2 km/h 56% 0.0 mm 145.00 W/m2
17:59 23.9 °C 16.4 °C 1012.4 hPa WSW 5.0 km/h 11.1 km/h 63% 0.0 mm 239.00 W/m2
18:04 24.0 °C 17.1 °C 1012.6 hPa SW 7.2 km/h 11.1 km/h 65% 0.0 mm 175.00 W/m2
18:09 23.2 °C 17.0 °C 1012.4 hPa WSW 8.7 km/h 13.4 km/h 68% 0.0 mm 125.00 W/m2
18:14 22.8 °C 17.3 °C 1012.5 hPa SW 7.2 km/h 13.4 km/h 71% 0.0 mm 271.00 W/m2
18:19 23.5 °C 17.5 °C 1012.4 hPa SSW 5.0 km/h 11.1 km/h 69% 0.0 mm 241.00 W/m2
18:24 24.2 °C 17.4 °C 1012.3 hPa North 7.2 km/h 12.2 km/h 66% 0.0 mm 229.00 W/m2
18:29 24.5 °C 17.3 °C 1012.4 hPa SE 5.0 km/h 13.4 km/h 64% 0.0 mm 216.00 W/m2
18:34 25.0 °C 16.2 °C 1012.3 hPa SSE 6.1 km/h 13.4 km/h 58% 0.0 mm 206.00 W/m2
18:39 25.2 °C 16.4 °C 1012.3 hPa SSW 5.0 km/h 9.7 km/h 58% 0.0 mm 197.00 W/m2
18:44 25.4 °C 16.3 °C 1012.1 hPa West 2.6 km/h 8.7 km/h 57% 0.0 mm 186.00 W/m2
18:49 26.1 °C 16.1 °C 1012.2 hPa SSW 2.6 km/h 8.7 km/h 54% 0.0 mm 178.00 W/m2
18:54 26.2 °C 15.9 °C 1012.2 hPa SSE 1.1 km/h 7.2 km/h 53% 0.0 mm 169.00 W/m2
18:59 26.2 °C 15.9 °C 1012.1 hPa West 5.0 km/h 7.2 km/h 53% 0.0 mm 159.00 W/m2
19:04 26.3 °C 15.7 °C 1012.3 hPa North 2.6 km/h 7.2 km/h 52% 0.0 mm 150.00 W/m2
19:09 26.8 °C 15.6 °C 1012.2 hPa WSW 3.5 km/h 6.1 km/h 50% 0.0 mm 140.00 W/m2
19:14 27.0 °C 14.7 °C 1012.2 hPa WSW 2.6 km/h 5.0 km/h 47% 0.0 mm 130.00 W/m2
19:19 26.6 °C 15.9 °C 1012.1 hPa WSW 3.5 km/h 6.1 km/h 52% 0.0 mm 120.00 W/m2
19:24 25.6 °C 15.9 °C 1012.2 hPa WSW 2.6 km/h 6.1 km/h 55% 0.0 mm 110.00 W/m2
19:29 25.5 °C 16.7 °C 1012.1 hPa WSW 2.6 km/h 6.1 km/h 58% 0.0 mm 101.00 W/m2
19:34 25.4 °C 16.6 °C 1012.3 hPa Calm   5.0 km/h 58% 0.0 mm 91.00 W/m2
19:39 26.0 °C 16.6 °C 1012.1 hPa Calm   5.0 km/h 56% 0.0 mm 81.00 W/m2
19:44 25.6 °C 16.2 °C 1012.3 hPa West 2.6 km/h 3.5 km/h 56% 0.0 mm 52.00 W/m2
19:49 24.4 °C 16.7 °C 1012.2 hPa WSW 3.5 km/h 5.0 km/h 62% 0.0 mm 58.00 W/m2
19:54 23.8 °C 17.1 °C 1012.2 hPa SW 2.6 km/h 5.0 km/h 66% 0.0 mm 47.00 W/m2
19:59 23.4 °C 16.9 °C 1012.1 hPa SW 3.5 km/h 5.0 km/h 67% 0.0 mm 36.00 W/m2
20:04 22.9 °C 16.4 °C 1012.4 hPa SW 2.6 km/h 6.1 km/h 67% 0.0 mm 21.00 W/m2
20:09 22.0 °C 16.1 °C 1012.2 hPa WSW 2.6 km/h 6.1 km/h 69% 0.0 mm 10.00 W/m2
20:14 21.2 °C 16.2 °C 1012.3 hPa WSW 2.6 km/h 5.0 km/h 73% 0.0 mm 5.00 W/m2
20:19 20.5 °C 15.9 °C 1012.3 hPa Calm   5.0 km/h 75% 0.0 mm 3.00 W/m2
20:24 20.2 °C 15.8 °C 1012.3 hPa Calm   3.5 km/h 76% 0.0 mm 1.00 W/m2
20:29 20.1 °C 15.9 °C 1012.4 hPa NW 1.1 km/h 5.0 km/h 77% 0.0 mm 0.00 W/m2
20:34 20.0 °C 16.3 °C 1012.4 hPa NNW 2.6 km/h 5.0 km/h 79% 0.0 mm 0.00 W/m2
20:39 19.7 °C 16.2 °C 1012.5 hPa Calm   5.0 km/h 80% 0.0 mm 0.00 W/m2
20:44 19.5 °C 16.2 °C 1012.3 hPa Calm   5.0 km/h 81% 0.0 mm 0.00 W/m2
20:49 19.3 °C 15.9 °C 1012.4 hPa Calm     81% 0.0 mm 0.00 W/m2
20:54 19.2 °C 15.9 °C 1012.3 hPa Calm     81% 0.0 mm 0.00 W/m2
20:59 19.0 °C 15.9 °C 1012.3 hPa Calm     82% 0.0 mm 0.00 W/m2
21:04 19.0 °C 16.1 °C 1012.4 hPa Calm   5.0 km/h 83% 0.0 mm 0.00 W/m2
21:09 18.9 °C 16.3 °C 1012.2 hPa ENE 2.6 km/h 5.0 km/h 85% 0.0 mm 0.00 W/m2
21:14 19.0 °C 16.2 °C 1012.2 hPa Calm   5.0 km/h 84% 0.0 mm 0.00 W/m2
21:19 18.9 °C 16.3 °C 1012.4 hPa Calm   5.0 km/h 85% 0.0 mm 0.00 W/m2
21:24 18.9 °C 16.3 °C 1012.4 hPa Calm     85% 0.0 mm 0.00 W/m2
21:29 18.8 °C 16.4 °C 1012.4 hPa Calm   2.6 km/h 86% 0.0 mm 0.00 W/m2
21:34 18.8 °C 16.6 °C 1012.5 hPa Calm   2.6 km/h 87% 0.0 mm 0.00 W/m2
21:39 18.7 °C 16.5 °C 1012.5 hPa Calm     87% 0.0 mm 0.00 W/m2
21:44 18.7 °C 16.9 °C 1012.6 hPa SE 1.1 km/h 5.0 km/h 89% 0.0 mm 0.00 W/m2
21:49 18.6 °C 16.9 °C 1012.5 hPa Calm   5.0 km/h 90% 0.0 mm 0.00 W/m2
21:54 18.5 °C 17.0 °C 1012.5 hPa SE 3.5 km/h 7.2 km/h 91% 0.0 mm 0.00 W/m2
21:59 18.4 °C 16.9 °C 1012.7 hPa Calm   7.2 km/h 91% 0.0 mm 0.00 W/m2
22:04 18.4 °C 17.1 °C 1012.5 hPa Calm   5.0 km/h 92% 0.0 mm 0.00 W/m2
22:09 18.1 °C 16.8 °C 1012.5 hPa SE 1.1 km/h 3.5 km/h 92% 0.0 mm 0.00 W/m2
22:14 18.1 °C 16.8 °C 1012.5 hPa Calm   3.5 km/h 92% 0.0 mm 0.00 W/m2
22:19 18.1 °C 16.9 °C 1012.3 hPa Calm   3.5 km/h 93% 0.0 mm 0.00 W/m2
22:24 18.0 °C 17.1 °C 1012.4 hPa Calm   2.6 km/h 94% 0.0 mm 0.00 W/m2
22:29 17.9 °C 16.8 °C 1012.3 hPa Calm     93% 0.0 mm 0.00 W/m2
22:34 17.8 °C 16.7 °C 1012.3 hPa Calm     93% 0.0 mm 0.00 W/m2
22:39 17.6 °C 16.4 °C 1012.2 hPa Calm     93% 0.0 mm 0.00 W/m2
22:44 17.6 °C 16.4 °C 1012.4 hPa Calm     93% 0.0 mm 0.00 W/m2
22:49 17.5 °C 16.4 °C 1012.3 hPa Calm     93% 0.0 mm 0.00 W/m2
22:54 17.4 °C 16.4 °C 1012.2 hPa Calm     94% 0.0 mm 0.00 W/m2
22:59 17.3 °C 16.5 °C 1012.2 hPa Calm     95% 0.0 mm 0.00 W/m2
23:04 17.2 °C 16.4 °C 1012.3 hPa Calm     95% 0.0 mm 0.00 W/m2
23:09 17.1 °C 16.3 °C 1012.1 hPa Calm     95% 0.0 mm 0.00 W/m2
23:14 17.0 °C 16.4 °C 1012.2 hPa Calm     96% 0.0 mm 0.00 W/m2
23:19 16.9 °C 16.4 °C 1012.3 hPa Calm     97% 0.0 mm 0.00 W/m2
23:24 16.8 °C 16.3 °C 1012.1 hPa Calm     97% 0.0 mm 0.00 W/m2
23:29 16.8 °C 16.3 °C 1012.0 hPa Calm     97% 0.0 mm 0.00 W/m2
23:34 16.7 °C 16.2 °C 1012.0 hPa Calm     97% 0.0 mm 0.00 W/m2
23:39 16.6 °C 16.1 °C 1011.9 hPa Calm     97% 0.0 mm 0.00 W/m2
23:44 16.4 °C 15.9 °C 1011.9 hPa Calm     97% 0.0 mm 0.00 W/m2
23:49 16.4 °C 15.9 °C 1011.7 hPa Calm     97% 0.0 mm 0.00 W/m2
23:54 16.4 °C 15.9 °C 1011.8 hPa Calm     97% 0.0 mm 0.00 W/m2
23:59 16.3 °C 15.8 °C 1011.8 hPa Calm     97% 0.0 mm 0.00 W/m2
Northern Hawkes Bay. New Zealand Historic Data
Compliments of Weather Underground - 2 mb